Terminal Aerodrome Forecast
Issued by NWS Lake Charles, LA

Home | Current Version | Previous Version | Text Only | Print | Product List | Glossary On
Versions: 1 2 3 4 5 6 7 8 9 10 11 12 13 14 15 16 17 18 19 20 21 22
621
FTUS44 KLCH 282332
TAFLCH
TAF
KLCH 282332Z 2900/2924 16014KT P6SM SCT035
     FM290400 14012KT P6SM BKN015
     FM290600 15011KT P6SM OVC007
      TEMPO 2910/2912 4SM BR OVC004
     FM291200 15010KT P6SM OVC015
     FM291500 15015KT P6SM BKN035
      TEMPO 2920/2924 P6SM -TSRA BKN025CB=

USA.gov is the U.S. government's official web portal to all federal, state and local government web resources and services.